sensor_id;sensor_type;location;lat;lon;timestamp;P1;durP1;ratioP1;P2;durP2;ratioP2
55364;SDS011;41245;45.384;20.390;2024-02-21T00:01:31;23.35;;;10.02;;
55364;SDS011;41245;45.384;20.390;2024-02-21T00:03:57;19.27;;;9.13;;
55364;SDS011;41245;45.384;20.390;2024-02-21T00:06:23;16.65;;;9.02;;
55364;SDS011;41245;45.384;20.390;2024-02-21T00:08:51;21.13;;;9.43;;
55364;SDS011;41245;45.384;20.390;2024-02-21T00:11:17;18.00;;;9.05;;
55364;SDS011;41245;45.384;20.390;2024-02-21T00:13:43;22.75;;;9.90;;
55364;SDS011;41245;45.384;20.390;2024-02-21T00:16:09;17.58;;;9.52;;
55364;SDS011;41245;45.384;20.390;2024-02-21T00:18:36;20.83;;;10.38;;
55364;SDS011;41245;45.384;20.390;2024-02-21T00:21:02;19.73;;;9.30;;
55364;SDS011;41245;45.384;20.390;2024-02-21T00:23:28;19.88;;;11.65;;
55364;SDS011;41245;45.384;20.390;2024-02-21T00:25:54;19.80;;;9.68;;
55364;SDS011;41245;45.384;20.390;2024-02-21T00:28:20;24.08;;;10.93;;
55364;SDS011;41245;45.384;20.390;2024-02-21T00:30:46;21.08;;;10.82;;
55364;SDS011;41245;45.384;20.390;2024-02-21T00:33:15;21.23;;;9.65;;
55364;SDS011;41245;45.384;20.390;2024-02-21T00:35:41;19.25;;;10.93;;
55364;SDS011;41245;45.384;20.390;2024-02-21T00:38:07;22.00;;;10.85;;
55364;SDS011;41245;45.384;20.390;2024-02-21T00:40:33;21.65;;;12.93;;
55364;SDS011;41245;45.384;20.390;2024-02-21T00:42:59;25.02;;;10.05;;
55364;SDS011;41245;45.384;20.390;2024-02-21T00:45:25;21.65;;;10.52;;
55364;SDS011;41245;45.384;20.390;2024-02-21T00:47:52;22.80;;;10.52;;
55364;SDS011;41245;45.384;20.390;2024-02-21T00:50:18;20.20;;;10.50;;
55364;SDS011;41245;45.384;20.390;2024-02-21T00:52:44;22.70;;;11.05;;
55364;SDS011;41245;45.384;20.390;2024-02-21T00:55:10;19.63;;;9.82;;
55364;SDS011;41245;45.384;20.390;2024-02-21T00:57:36;21.15;;;11.30;;
55364;SDS011;41245;45.384;20.390;2024-02-21T01:00:03;27.90;;;11.13;;
55364;SDS011;41245;45.384;20.390;2024-02-21T01:02:29;19.80;;;10.10;;
55364;SDS011;41245;45.384;20.390;2024-02-21T01:04:58;17.13;;;9.40;;
55364;SDS011;41245;45.384;20.390;2024-02-21T01:07:24;17.63;;;9.75;;
55364;SDS011;41245;45.384;20.390;2024-02-21T01:09:50;24.13;;;10.32;;
55364;SDS011;41245;45.384;20.390;2024-02-21T01:12:16;22.52;;;11.10;;
55364;SDS011;41245;45.384;20.390;2024-02-21T01:14:42;18.63;;;9.93;;
55364;SDS011;41245;45.384;20.390;2024-02-21T01:17:08;18.90;;;8.80;;
55364;SDS011;41245;45.384;20.390;2024-02-21T01:19:34;25.05;;;10.25;;
55364;SDS011;41245;45.384;20.390;2024-02-21T01:22:00;18.63;;;9.63;;
55364;SDS011;41245;45.384;20.390;2024-02-21T01:24:26;20.42;;;10.07;;
55364;SDS011;41245;45.384;20.390;2024-02-21T01:26:52;20.15;;;10.55;;
55364;SDS011;41245;45.384;20.390;2024-02-21T01:29:19;20.52;;;9.38;;
55364;SDS011;41245;45.384;20.390;2024-02-21T01:31:45;19.95;;;9.93;;
55364;SDS011;41245;45.384;20.390;2024-02-21T01:34:12;18.67;;;9.95;;
55364;SDS011;41245;45.384;20.390;2024-02-21T01:36:38;19.92;;;9.80;;
55364;SDS011;41245;45.384;20.390;2024-02-21T01:39:04;20.35;;;9.63;;
55364;SDS011;41245;45.384;20.390;2024-02-21T01:41:30;19.77;;;10.85;;
55364;SDS011;41245;45.384;20.390;2024-02-21T01:43:56;21.90;;;10.57;;
55364;SDS011;41245;45.384;20.390;2024-02-21T01:46:23;19.75;;;9.65;;
55364;SDS011;41245;45.384;20.390;2024-02-21T01:51:18;19.08;;;10.00;;
55364;SDS011;41245;45.384;20.390;2024-02-21T01:53:44;24.35;;;11.68;;
55364;SDS011;41245;45.384;20.390;2024-02-21T01:56:12;18.70;;;9.90;;
55364;SDS011;41245;45.384;20.390;2024-02-21T01:58:39;17.50;;;10.80;;
55364;SDS011;41245;45.384;20.390;2024-02-21T02:01:06;22.42;;;11.85;;
55364;SDS011;41245;45.384;20.390;2024-02-21T02:03:32;18.67;;;10.23;;
55364;SDS011;41245;45.384;20.390;2024-02-21T02:05:59;27.38;;;11.00;;
55364;SDS011;41245;45.384;20.390;2024-02-21T02:08:25;19.95;;;9.85;;
55364;SDS011;41245;45.384;20.390;2024-02-21T02:10:51;27.00;;;10.88;;
55364;SDS011;41245;45.384;20.390;2024-02-21T02:13:17;24.80;;;10.88;;
55364;SDS011;41245;45.384;20.390;2024-02-21T02:15:44;20.25;;;9.48;;
55364;SDS011;41245;45.384;20.390;2024-02-21T02:18:11;22.50;;;10.45;;
55364;SDS011;41245;45.384;20.390;2024-02-21T02:20:37;27.05;;;12.95;;
55364;SDS011;41245;45.384;20.390;2024-02-21T02:25:45;21.95;;;11.85;;
55364;SDS011;41245;45.384;20.390;2024-02-21T02:28:14;23.23;;;10.73;;
55364;SDS011;41245;45.384;20.390;2024-02-21T02:30:41;25.42;;;12.77;;
55364;SDS011;41245;45.384;20.390;2024-02-21T02:33:07;26.05;;;11.05;;
55364;SDS011;41245;45.384;20.390;2024-02-21T02:35:33;23.05;;;12.32;;
55364;SDS011;41245;45.384;20.390;2024-02-21T02:38:03;25.08;;;11.27;;
55364;SDS011;41245;45.384;20.390;2024-02-21T02:40:29;24.42;;;11.77;;
55364;SDS011;41245;45.384;20.390;2024-02-21T02:42:56;28.05;;;11.65;;
55364;SDS011;41245;45.384;20.390;2024-02-21T02:45:22;19.70;;;10.45;;
55364;SDS011;41245;45.384;20.390;2024-02-21T02:47:54;24.98;;;12.15;;
55364;SDS011;41245;45.384;20.390;2024-02-21T02:50:22;24.88;;;11.40;;
55364;SDS011;41245;45.384;20.390;2024-02-21T02:52:48;21.42;;;11.85;;
55364;SDS011;41245;45.384;20.390;2024-02-21T02:55:14;24.25;;;11.88;;
55364;SDS011;41245;45.384;20.390;2024-02-21T02:57:40;20.58;;;10.60;;
55364;SDS011;41245;45.384;20.390;2024-02-21T03:00:07;21.88;;;10.75;;
55364;SDS011;41245;45.384;20.390;2024-02-21T03:02:34;21.70;;;11.57;;
55364;SDS011;41245;45.384;20.390;2024-02-21T03:05:00;24.83;;;10.65;;
55364;SDS011;41245;45.384;20.390;2024-02-21T03:07:26;24.38;;;11.13;;
55364;SDS011;41245;45.384;20.390;2024-02-21T03:09:52;20.58;;;10.77;;
55364;SDS011;41245;45.384;20.390;2024-02-21T03:12:19;24.75;;;11.23;;
55364;SDS011;41245;45.384;20.390;2024-02-21T03:14:52;28.02;;;10.48;;
55364;SDS011;41245;45.384;20.390;2024-02-21T03:17:18;23.65;;;11.05;;
55364;SDS011;41245;45.384;20.390;2024-02-21T03:19:44;22.25;;;10.40;;
55364;SDS011;41245;45.384;20.390;2024-02-21T03:22:10;20.25;;;9.75;;
55364;SDS011;41245;45.384;20.390;2024-02-21T03:24:36;25.63;;;10.65;;
55364;SDS011;41245;45.384;20.390;2024-02-21T03:27:03;25.40;;;11.48;;
55364;SDS011;41245;45.384;20.390;2024-02-21T03:29:29;23.38;;;10.93;;
55364;SDS011;41245;45.384;20.390;2024-02-21T03:31:55;21.70;;;10.85;;
55364;SDS011;41245;45.384;20.390;2024-02-21T03:34:21;22.10;;;10.55;;
55364;SDS011;41245;45.384;20.390;2024-02-21T03:36:47;27.20;;;11.65;;
55364;SDS011;41245;45.384;20.390;2024-02-21T03:39:13;25.60;;;11.23;;
55364;SDS011;41245;45.384;20.390;2024-02-21T03:41:39;19.67;;;10.10;;
55364;SDS011;41245;45.384;20.390;2024-02-21T03:44:05;19.95;;;10.20;;
55364;SDS011;41245;45.384;20.390;2024-02-21T03:46:31;20.30;;;9.55;;
55364;SDS011;41245;45.384;20.390;2024-02-21T03:48:57;18.73;;;10.00;;
55364;SDS011;41245;45.384;20.390;2024-02-21T03:51:23;17.88;;;9.65;;
55364;SDS011;41245;45.384;20.390;2024-02-21T03:53:50;22.83;;;10.60;;
55364;SDS011;41245;45.384;20.390;2024-02-21T03:56:16;23.63;;;9.65;;
55364;SDS011;41245;45.384;20.390;2024-02-21T03:58:42;27.20;;;11.27;;
55364;SDS011;41245;45.384;20.390;2024-02-21T04:01:08;21.65;;;9.73;;
55364;SDS011;41245;45.384;20.390;2024-02-21T04:03:34;17.73;;;10.05;;
55364;SDS011;41245;45.384;20.390;2024-02-21T04:06:00;16.50;;;9.10;;
55364;SDS011;41245;45.384;20.390;2024-02-21T04:08:26;18.17;;;9.38;;
55364;SDS011;41245;45.384;20.390;2024-02-21T04:10:52;21.65;;;11.32;;
55364;SDS011;41245;45.384;20.390;2024-02-21T04:13:18;17.40;;;9.07;;
55364;SDS011;41245;45.384;20.390;2024-02-21T04:15:44;16.35;;;8.93;;
55364;SDS011;41245;45.384;20.390;2024-02-21T04:18:10;21.23;;;9.45;;
55364;SDS011;41245;45.384;20.390;2024-02-21T04:20:36;22.17;;;9.45;;
55364;SDS011;41245;45.384;20.390;2024-02-21T04:23:02;18.48;;;8.73;;
55364;SDS011;41245;45.384;20.390;2024-02-21T04:25:28;13.23;;;8.25;;
55364;SDS011;41245;45.384;20.390;2024-02-21T04:27:54;19.70;;;9.35;;
55364;SDS011;41245;45.384;20.390;2024-02-21T04:30:20;15.95;;;8.95;;
55364;SDS011;41245;45.384;20.390;2024-02-21T04:32:46;19.48;;;7.65;;
55364;SDS011;41245;45.384;20.390;2024-02-21T04:35:12;17.05;;;7.95;;
55364;SDS011;41245;45.384;20.390;2024-02-21T04:37:38;21.45;;;8.93;;
55364;SDS011;41245;45.384;20.390;2024-02-21T04:40:05;17.42;;;8.23;;
55364;SDS011;41245;45.384;20.390;2024-02-21T04:42:31;20.30;;;9.45;;
55364;SDS011;41245;45.384;20.390;2024-02-21T04:44:57;19.67;;;9.32;;
55364;SDS011;41245;45.384;20.390;2024-02-21T04:47:23;17.70;;;9.43;;
55364;SDS011;41245;45.384;20.390;2024-02-21T04:49:50;20.38;;;9.50;;
55364;SDS011;41245;45.384;20.390;2024-02-21T04:52:16;23.40;;;9.90;;
55364;SDS011;41245;45.384;20.390;2024-02-21T04:54:42;17.80;;;9.38;;
55364;SDS011;41245;45.384;20.390;2024-02-21T04:57:08;16.83;;;8.70;;
55364;SDS011;41245;45.384;20.390;2024-02-21T04:59:35;16.58;;;8.82;;
55364;SDS011;41245;45.384;20.390;2024-02-21T05:02:01;19.63;;;9.63;;
55364;SDS011;41245;45.384;20.390;2024-02-21T05:04:28;14.57;;;8.95;;
55364;SDS011;41245;45.384;20.390;2024-02-21T05:06:54;22.88;;;11.15;;
55364;SDS011;41245;45.384;20.390;2024-02-21T05:09:20;20.65;;;10.40;;
55364;SDS011;41245;45.384;20.390;2024-02-21T05:11:46;24.02;;;9.80;;
55364;SDS011;41245;45.384;20.390;2024-02-21T05:14:12;14.93;;;8.57;;
55364;SDS011;41245;45.384;20.390;2024-02-21T05:16:39;18.80;;;8.48;;
55364;SDS011;41245;45.384;20.390;2024-02-21T05:19:05;15.70;;;8.90;;
55364;SDS011;41245;45.384;20.390;2024-02-21T05:21:31;17.05;;;8.88;;
55364;SDS011;41245;45.384;20.390;2024-02-21T05:23:57;15.98;;;8.15;;
55364;SDS011;41245;45.384;20.390;2024-02-21T05:26:25;14.77;;;8.38;;
55364;SDS011;41245;45.384;20.390;2024-02-21T05:28:51;17.25;;;8.70;;
55364;SDS011;41245;45.384;20.390;2024-02-21T05:31:18;13.40;;;7.35;;
55364;SDS011;41245;45.384;20.390;2024-02-21T05:33:44;17.85;;;8.38;;
55364;SDS011;41245;45.384;20.390;2024-02-21T05:36:11;19.33;;;8.73;;
55364;SDS011;41245;45.384;20.390;2024-02-21T05:38:37;12.45;;;7.30;;
55364;SDS011;41245;45.384;20.390;2024-02-21T05:41:03;11.30;;;7.28;;
55364;SDS011;41245;45.384;20.390;2024-02-21T05:43:29;16.80;;;8.93;;
55364;SDS011;41245;45.384;20.390;2024-02-21T05:45:56;14.38;;;7.97;;
55364;SDS011;41245;45.384;20.390;2024-02-21T05:48:22;19.58;;;8.73;;
55364;SDS011;41245;45.384;20.390;2024-02-21T05:50:49;12.18;;;6.88;;
55364;SDS011;41245;45.384;20.390;2024-02-21T05:53:15;18.08;;;7.45;;
55364;SDS011;41245;45.384;20.390;2024-02-21T05:55:41;13.52;;;6.47;;
55364;SDS011;41245;45.384;20.390;2024-02-21T05:58:07;17.73;;;7.85;;
55364;SDS011;41245;45.384;20.390;2024-02-21T06:00:36;17.73;;;8.40;;
55364;SDS011;41245;45.384;20.390;2024-02-21T06:03:03;29.15;;;11.93;;
55364;SDS011;41245;45.384;20.390;2024-02-21T06:05:29;19.55;;;9.20;;
55364;SDS011;41245;45.384;20.390;2024-02-21T06:07:56;16.13;;;7.78;;
55364;SDS011;41245;45.384;20.390;2024-02-21T06:10:22;14.82;;;7.45;;
55364;SDS011;41245;45.384;20.390;2024-02-21T06:12:48;12.88;;;7.88;;
55364;SDS011;41245;45.384;20.390;2024-02-21T06:15:14;15.32;;;6.32;;
55364;SDS011;41245;45.384;20.390;2024-02-21T06:17:40;11.00;;;6.45;;
55364;SDS011;41245;45.384;20.390;2024-02-21T06:20:06;9.43;;;5.85;;
55364;SDS011;41245;45.384;20.390;2024-02-21T06:22:32;13.95;;;5.95;;
55364;SDS011;41245;45.384;20.390;2024-02-21T06:24:59;11.23;;;6.15;;
55364;SDS011;41245;45.384;20.390;2024-02-21T06:27:25;14.18;;;5.68;;
55364;SDS011;41245;45.384;20.390;2024-02-21T06:29:51;12.10;;;5.85;;
55364;SDS011;41245;45.384;20.390;2024-02-21T06:32:17;9.93;;;5.85;;
55364;SDS011;41245;45.384;20.390;2024-02-21T06:34:43;8.50;;;5.35;;
55364;SDS011;41245;45.384;20.390;2024-02-21T06:37:09;11.88;;;7.00;;
55364;SDS011;41245;45.384;20.390;2024-02-21T06:39:35;17.00;;;7.07;;
55364;SDS011;41245;45.384;20.390;2024-02-21T06:42:03;10.88;;;6.10;;
55364;SDS011;41245;45.384;20.390;2024-02-21T06:44:29;11.02;;;6.38;;
55364;SDS011;41245;45.384;20.390;2024-02-21T06:46:57;15.30;;;7.32;;
55364;SDS011;41245;45.384;20.390;2024-02-21T06:49:24;16.17;;;8.00;;
55364;SDS011;41245;45.384;20.390;2024-02-21T06:51:50;29.05;;;13.40;;
55364;SDS011;41245;45.384;20.390;2024-02-21T06:54:16;34.25;;;15.48;;
55364;SDS011;41245;45.384;20.390;2024-02-21T06:56:42;44.50;;;18.05;;
55364;SDS011;41245;45.384;20.390;2024-02-21T06:59:08;24.73;;;10.13;;
55364;SDS011;41245;45.384;20.390;2024-02-21T07:01:34;12.52;;;8.13;;
55364;SDS011;41245;45.384;20.390;2024-02-21T07:04:00;10.90;;;6.55;;
55364;SDS011;41245;45.384;20.390;2024-02-21T07:06:26;15.45;;;7.30;;
55364;SDS011;41245;45.384;20.390;2024-02-21T07:08:52;19.52;;;8.73;;
55364;SDS011;41245;45.384;20.390;2024-02-21T07:11:18;16.95;;;9.57;;
55364;SDS011;41245;45.384;20.390;2024-02-21T07:13:44;16.75;;;7.88;;
55364;SDS011;41245;45.384;20.390;2024-02-21T07:16:11;10.65;;;6.47;;
55364;SDS011;41245;45.384;20.390;2024-02-21T07:18:37;14.45;;;6.55;;
55364;SDS011;41245;45.384;20.390;2024-02-21T07:21:03;19.73;;;7.78;;
55364;SDS011;41245;45.384;20.390;2024-02-21T07:23:29;10.65;;;6.53;;
55364;SDS011;41245;45.384;20.390;2024-02-21T07:25:55;14.25;;;6.30;;
55364;SDS011;41245;45.384;20.390;2024-02-21T07:28:21;10.20;;;6.30;;
55364;SDS011;41245;45.384;20.390;2024-02-21T07:30:47;15.77;;;8.13;;
55364;SDS011;41245;45.384;20.390;2024-02-21T07:33:13;15.93;;;6.63;;
55364;SDS011;41245;45.384;20.390;2024-02-21T07:35:39;12.80;;;6.65;;
55364;SDS011;41245;45.384;20.390;2024-02-21T07:38:07;11.70;;;7.00;;
55364;SDS011;41245;45.384;20.390;2024-02-21T07:40:37;9.73;;;5.78;;
55364;SDS011;41245;45.384;20.390;2024-02-21T07:43:04;12.00;;;6.13;;
55364;SDS011;41245;45.384;20.390;2024-02-21T07:45:30;17.77;;;6.28;;
55364;SDS011;41245;45.384;20.390;2024-02-21T07:47:56;9.90;;;5.97;;
55364;SDS011;41245;45.384;20.390;2024-02-21T07:50:22;11.32;;;6.65;;
55364;SDS011;41245;45.384;20.390;2024-02-21T07:52:48;11.10;;;5.85;;
55364;SDS011;41245;45.384;20.390;2024-02-21T07:55:14;10.07;;;5.60;;
55364;SDS011;41245;45.384;20.390;2024-02-21T07:57:40;13.07;;;5.72;;
55364;SDS011;41245;45.384;20.390;2024-02-21T08:00:06;15.65;;;5.95;;
55364;SDS011;41245;45.384;20.390;2024-02-21T08:02:42;15.15;;;7.28;;
55364;SDS011;41245;45.384;20.390;2024-02-21T08:05:09;31.73;;;11.57;;
55364;SDS011;41245;45.384;20.390;2024-02-21T08:07:36;33.97;;;11.15;;
55364;SDS011;41245;45.384;20.390;2024-02-21T08:10:03;42.30;;;14.48;;
55364;SDS011;41245;45.384;20.390;2024-02-21T08:12:29;44.63;;;16.55;;
55364;SDS011;41245;45.384;20.390;2024-02-21T08:14:55;30.48;;;9.48;;
55364;SDS011;41245;45.384;20.390;2024-02-21T08:17:21;28.08;;;10.40;;
55364;SDS011;41245;45.384;20.390;2024-02-21T08:19:47;40.03;;;11.90;;
55364;SDS011;41245;45.384;20.390;2024-02-21T08:22:14;19.92;;;9.27;;
55364;SDS011;41245;45.384;20.390;2024-02-21T08:24:41;27.27;;;8.48;;
55364;SDS011;41245;45.384;20.390;2024-02-21T08:27:07;11.18;;;6.50;;
55364;SDS011;41245;45.384;20.390;2024-02-21T08:29:33;13.18;;;6.07;;
55364;SDS011;41245;45.384;20.390;2024-02-21T08:31:59;11.10;;;5.00;;
55364;SDS011;41245;45.384;20.390;2024-02-21T08:34:25;9.85;;;4.72;;
55364;SDS011;41245;45.384;20.390;2024-02-21T08:36:51;10.43;;;4.93;;
55364;SDS011;41245;45.384;20.390;2024-02-21T08:39:17;10.95;;;4.90;;
55364;SDS011;41245;45.384;20.390;2024-02-21T08:41:43;7.90;;;4.55;;
55364;SDS011;41245;45.384;20.390;2024-02-21T08:44:09;13.32;;;4.18;;
55364;SDS011;41245;45.384;20.390;2024-02-21T08:46:35;9.55;;;5.57;;
55364;SDS011;41245;45.384;20.390;2024-02-21T08:49:05;7.53;;;4.13;;
55364;SDS011;41245;45.384;20.390;2024-02-21T08:51:31;8.13;;;4.03;;
55364;SDS011;41245;45.384;20.390;2024-02-21T08:53:57;10.82;;;4.45;;
55364;SDS011;41245;45.384;20.390;2024-02-21T08:56:25;14.27;;;4.15;;
55364;SDS011;41245;45.384;20.390;2024-02-21T08:58:52;10.82;;;4.40;;
55364;SDS011;41245;45.384;20.390;2024-02-21T09:01:18;7.57;;;4.82;;
55364;SDS011;41245;45.384;20.390;2024-02-21T09:03:46;10.02;;;4.18;;
55364;SDS011;41245;45.384;20.390;2024-02-21T09:06:12;11.00;;;5.40;;
55364;SDS011;41245;45.384;20.390;2024-02-21T09:08:39;10.45;;;3.83;;
55364;SDS011;41245;45.384;20.390;2024-02-21T09:11:05;12.75;;;4.60;;
55364;SDS011;41245;45.384;20.390;2024-02-21T09:13:32;11.50;;;5.00;;
55364;SDS011;41245;45.384;20.390;2024-02-21T09:15:58;14.18;;;4.68;;
55364;SDS011;41245;45.384;20.390;2024-02-21T09:18:24;13.82;;;5.80;;
55364;SDS011;41245;45.384;20.390;2024-02-21T09:20:50;9.45;;;5.22;;
55364;SDS011;41245;45.384;20.390;2024-02-21T09:23:16;12.18;;;5.95;;
55364;SDS011;41245;45.384;20.390;2024-02-21T09:25:44;13.30;;;5.30;;
55364;SDS011;41245;45.384;20.390;2024-02-21T09:28:11;12.70;;;5.22;;
55364;SDS011;41245;45.384;20.390;2024-02-21T09:30:38;11.23;;;4.35;;
55364;SDS011;41245;45.384;20.390;2024-02-21T09:33:04;11.57;;;4.07;;
55364;SDS011;41245;45.384;20.390;2024-02-21T09:35:30;10.18;;;4.55;;
55364;SDS011;41245;45.384;20.390;2024-02-21T09:37:58;19.77;;;7.05;;
55364;SDS011;41245;45.384;20.390;2024-02-21T09:40:24;13.90;;;7.22;;
55364;SDS011;41245;45.384;20.390;2024-02-21T09:42:53;10.35;;;6.30;;
55364;SDS011;41245;45.384;20.390;2024-02-21T09:45:24;18.13;;;7.82;;
55364;SDS011;41245;45.384;20.390;2024-02-21T09:50:20;11.77;;;5.03;;
55364;SDS011;41245;45.384;20.390;2024-02-21T09:52:48;17.80;;;5.95;;
55364;SDS011;41245;45.384;20.390;2024-02-21T09:55:14;6.93;;;4.28;;
55364;SDS011;41245;45.384;20.390;2024-02-21T09:57:41;15.93;;;4.97;;
55364;SDS011;41245;45.384;20.390;2024-02-21T10:00:07;18.33;;;4.47;;
55364;SDS011;41245;45.384;20.390;2024-02-21T10:02:34;13.90;;;4.53;;
55364;SDS011;41245;45.384;20.390;2024-02-21T10:05:00;11.95;;;4.70;;
55364;SDS011;41245;45.384;20.390;2024-02-21T10:07:27;12.40;;;4.63;;
55364;SDS011;41245;45.384;20.390;2024-02-21T10:10:03;9.55;;;4.13;;
55364;SDS011;41245;45.384;20.390;2024-02-21T10:12:29;11.00;;;3.83;;
55364;SDS011;41245;45.384;20.390;2024-02-21T10:15:04;14.10;;;6.22;;
55364;SDS011;41245;45.384;20.390;2024-02-21T10:17:32;12.32;;;5.93;;
55364;SDS011;41245;45.384;20.390;2024-02-21T10:20:10;17.20;;;5.55;;
55364;SDS011;41245;45.384;20.390;2024-02-21T10:22:37;12.60;;;4.07;;
55364;SDS011;41245;45.384;20.390;2024-02-21T10:25:22;14.75;;;5.45;;
55364;SDS011;41245;45.384;20.390;2024-02-21T10:27:48;21.02;;;4.90;;
55364;SDS011;41245;45.384;20.390;2024-02-21T10:30:16;11.77;;;4.97;;
55364;SDS011;41245;45.384;20.390;2024-02-21T10:32:55;17.30;;;6.05;;
55364;SDS011;41245;45.384;20.390;2024-02-21T10:35:29;11.02;;;3.92;;
55364;SDS011;41245;45.384;20.390;2024-02-21T10:37:59;9.32;;;4.00;;
55364;SDS011;41245;45.384;20.390;2024-02-21T10:40:26;9.02;;;4.38;;
55364;SDS011;41245;45.384;20.390;2024-02-21T10:43:12;11.85;;;4.53;;
55364;SDS011;41245;45.384;20.390;2024-02-21T10:45:38;10.88;;;5.28;;
55364;SDS011;41245;45.384;20.390;2024-02-21T10:48:11;10.80;;;5.05;;
55364;SDS011;41245;45.384;20.390;2024-02-21T10:50:53;9.02;;;4.43;;
55364;SDS011;41245;45.384;20.390;2024-02-21T10:58:37;10.02;;;4.13;;
55364;SDS011;41245;45.384;20.390;2024-02-21T11:01:04;14.23;;;4.35;;
55364;SDS011;41245;45.384;20.390;2024-02-21T11:03:30;13.50;;;4.25;;
55364;SDS011;41245;45.384;20.390;2024-02-21T11:05:57;19.70;;;4.63;;
55364;SDS011;41245;45.384;20.390;2024-02-21T11:08:24;12.18;;;5.00;;
55364;SDS011;41245;45.384;20.390;2024-02-21T11:10:56;9.25;;;4.40;;
55364;SDS011;41245;45.384;20.390;2024-02-21T11:13:34;13.07;;;4.65;;
55364;SDS011;41245;45.384;20.390;2024-02-21T11:18:34;12.48;;;4.75;;
55364;SDS011;41245;45.384;20.390;2024-02-21T11:21:00;11.35;;;3.63;;
55364;SDS011;41245;45.384;20.390;2024-02-21T11:23:26;15.60;;;4.32;;
55364;SDS011;41245;45.384;20.390;2024-02-21T11:26:03;12.07;;;4.03;;
55364;SDS011;41245;45.384;20.390;2024-02-21T11:28:29;10.60;;;3.58;;
55364;SDS011;41245;45.384;20.390;2024-02-21T11:31:06;11.25;;;4.43;;
55364;SDS011;41245;45.384;20.390;2024-02-21T11:33:33;13.68;;;3.60;;
55364;SDS011;41245;45.384;20.390;2024-02-21T11:35:59;11.80;;;4.90;;
55364;SDS011;41245;45.384;20.390;2024-02-21T11:38:25;13.88;;;4.00;;
55364;SDS011;41245;45.384;20.390;2024-02-21T11:40:51;6.70;;;3.47;;
55364;SDS011;41245;45.384;20.390;2024-02-21T11:43:17;11.60;;;3.75;;
55364;SDS011;41245;45.384;20.390;2024-02-21T11:45:43;6.38;;;3.25;;
55364;SDS011;41245;45.384;20.390;2024-02-21T11:48:09;6.85;;;2.45;;
55364;SDS011;41245;45.384;20.390;2024-02-21T11:50:35;6.10;;;2.88;;
55364;SDS011;41245;45.384;20.390;2024-02-21T11:53:02;10.48;;;3.67;;
55364;SDS011;41245;45.384;20.390;2024-02-21T11:55:28;7.38;;;3.00;;
55364;SDS011;41245;45.384;20.390;2024-02-21T11:57:54;4.97;;;2.72;;
55364;SDS011;41245;45.384;20.390;2024-02-21T12:00:20;15.05;;;3.17;;
55364;SDS011;41245;45.384;20.390;2024-02-21T12:02:46;10.82;;;2.88;;
55364;SDS011;41245;45.384;20.390;2024-02-21T12:05:12;12.88;;;4.22;;
55364;SDS011;41245;45.384;20.390;2024-02-21T12:07:39;11.57;;;4.65;;
55364;SDS011;41245;45.384;20.390;2024-02-21T12:10:11;24.80;;;8.00;;
55364;SDS011;41245;45.384;20.390;2024-02-21T12:12:38;11.93;;;4.28;;
55364;SDS011;41245;45.384;20.390;2024-02-21T12:15:04;14.00;;;3.22;;
55364;SDS011;41245;45.384;20.390;2024-02-21T12:17:33;13.25;;;4.18;;
55364;SDS011;41245;45.384;20.390;2024-02-21T12:20:00;14.10;;;4.22;;
55364;SDS011;41245;45.384;20.390;2024-02-21T12:22:26;20.75;;;6.40;;
55364;SDS011;41245;45.384;20.390;2024-02-21T12:24:53;15.75;;;6.18;;
55364;SDS011;41245;45.384;20.390;2024-02-21T12:27:19;10.63;;;5.22;;
55364;SDS011;41245;45.384;20.390;2024-02-21T12:29:47;8.48;;;4.38;;
55364;SDS011;41245;45.384;20.390;2024-02-21T12:32:13;12.13;;;5.18;;
55364;SDS011;41245;45.384;20.390;2024-02-21T12:34:39;7.55;;;3.17;;
55364;SDS011;41245;45.384;20.390;2024-02-21T12:37:05;8.10;;;3.58;;
55364;SDS011;41245;45.384;20.390;2024-02-21T12:39:31;7.85;;;2.88;;
55364;SDS011;41245;45.384;20.390;2024-02-21T12:41:58;13.10;;;3.55;;
55364;SDS011;41245;45.384;20.390;2024-02-21T12:44:24;9.30;;;4.20;;
55364;SDS011;41245;45.384;20.390;2024-02-21T12:46:50;13.35;;;4.97;;
55364;SDS011;41245;45.384;20.390;2024-02-21T12:49:18;10.98;;;4.65;;
55364;SDS011;41245;45.384;20.390;2024-02-21T12:51:45;10.63;;;4.88;;
55364;SDS011;41245;45.384;20.390;2024-02-21T12:54:14;9.13;;;3.80;;
55364;SDS011;41245;45.384;20.390;2024-02-21T12:56:40;10.45;;;3.83;;
55364;SDS011;41245;45.384;20.390;2024-02-21T12:59:06;11.32;;;4.15;;
55364;SDS011;41245;45.384;20.390;2024-02-21T13:01:35;14.87;;;4.43;;
55364;SDS011;41245;45.384;20.390;2024-02-21T13:04:02;14.05;;;4.25;;
55364;SDS011;41245;45.384;20.390;2024-02-21T13:06:28;8.82;;;3.70;;
55364;SDS011;41245;45.384;20.390;2024-02-21T13:08:54;14.10;;;4.28;;
55364;SDS011;41245;45.384;20.390;2024-02-21T13:11:20;7.90;;;3.25;;
55364;SDS011;41245;45.384;20.390;2024-02-21T13:13:46;8.82;;;3.35;;
55364;SDS011;41245;45.384;20.390;2024-02-21T13:16:13;12.02;;;4.40;;
55364;SDS011;41245;45.384;20.390;2024-02-21T13:18:39;8.07;;;3.45;;
55364;SDS011;41245;45.384;20.390;2024-02-21T13:21:07;8.95;;;3.00;;
55364;SDS011;41245;45.384;20.390;2024-02-21T13:23:33;9.13;;;3.25;;
55364;SDS011;41245;45.384;20.390;2024-02-21T13:26:00;12.98;;;3.38;;
55364;SDS011;41245;45.384;20.390;2024-02-21T13:28:26;13.48;;;4.10;;
55364;SDS011;41245;45.384;20.390;2024-02-21T13:30:52;10.85;;;2.90;;
55364;SDS011;41245;45.384;20.390;2024-02-21T13:33:18;9.13;;;3.25;;
55364;SDS011;41245;45.384;20.390;2024-02-21T13:35:44;7.38;;;3.38;;
55364;SDS011;41245;45.384;20.390;2024-02-21T13:38:11;9.40;;;3.50;;
55364;SDS011;41245;45.384;20.390;2024-02-21T13:40:37;13.05;;;3.58;;
55364;SDS011;41245;45.384;20.390;2024-02-21T13:43:03;8.25;;;3.53;;
55364;SDS011;41245;45.384;20.390;2024-02-21T13:45:29;7.63;;;2.90;;
55364;SDS011;41245;45.384;20.390;2024-02-21T13:47:56;8.85;;;3.65;;
55364;SDS011;41245;45.384;20.390;2024-02-21T13:50:23;13.93;;;3.88;;
55364;SDS011;41245;45.384;20.390;2024-02-21T13:52:49;7.78;;;3.47;;
55364;SDS011;41245;45.384;20.390;2024-02-21T13:55:15;17.67;;;3.97;;
55364;SDS011;41245;45.384;20.390;2024-02-21T13:57:42;9.90;;;4.05;;
55364;SDS011;41245;45.384;20.390;2024-02-21T14:00:09;12.75;;;4.88;;
55364;SDS011;41245;45.384;20.390;2024-02-21T14:02:36;13.15;;;4.22;;
55364;SDS011;41245;45.384;20.390;2024-02-21T14:05:02;7.05;;;3.03;;
55364;SDS011;41245;45.384;20.390;2024-02-21T14:07:31;10.02;;;2.97;;
55364;SDS011;41245;45.384;20.390;2024-02-21T14:09:58;10.50;;;3.42;;
55364;SDS011;41245;45.384;20.390;2024-02-21T14:12:24;12.27;;;3.83;;
55364;SDS011;41245;45.384;20.390;2024-02-21T14:14:50;13.35;;;3.58;;
55364;SDS011;41245;45.384;20.390;2024-02-21T14:17:17;7.45;;;3.03;;
55364;SDS011;41245;45.384;20.390;2024-02-21T14:19:43;13.50;;;3.40;;
55364;SDS011;41245;45.384;20.390;2024-02-21T14:22:09;8.40;;;3.53;;
55364;SDS011;41245;45.384;20.390;2024-02-21T14:24:36;11.55;;;3.30;;
55364;SDS011;41245;45.384;20.390;2024-02-21T14:27:03;9.27;;;3.30;;
55364;SDS011;41245;45.384;20.390;2024-02-21T14:29:29;11.07;;;2.90;;
55364;SDS011;41245;45.384;20.390;2024-02-21T14:31:55;14.50;;;3.10;;
55364;SDS011;41245;45.384;20.390;2024-02-21T14:34:21;12.45;;;2.80;;